TAF KMDT
KMDT 270530Z 2706/2806 28016G26KT P6SM OVC040 FM270900 30016G28KT P6SM SCT035 FM271500 29014G24KT P6SM SKC FM272300 28007KT P6SM SCT100=
METAR KMDT
WC KMDT
WS KMDT
WV KMDT